createdAt,value
2018-07-17T00:00:22.814Z,33.17
2018-07-17T00:02:55.266Z,22.83
2018-07-17T00:05:27.706Z,27.50
2018-07-17T00:08:00.057Z,34.17
2018-07-17T00:10:32.438Z,19.70
2018-07-17T00:13:05.339Z,21.27
2018-07-17T00:15:37.536Z,33.97
2018-07-17T00:18:09.842Z,27.17
2018-07-17T00:20:42.169Z,20.27
2018-07-17T00:23:14.616Z,26.87
2018-07-17T00:25:46.877Z,21.47
2018-07-17T00:28:19.330Z,23.93
2018-07-17T00:34:14.361Z,28.77
2018-07-17T00:36:45.652Z,25.13
2018-07-17T00:39:18.090Z,30.77
2018-07-17T00:41:50.590Z,30.87
2018-07-17T00:44:23.035Z,28.40
2018-07-17T00:46:55.887Z,21.50
2018-07-17T00:49:28.279Z,31.10
2018-07-17T00:52:01.286Z,26.20
2018-07-17T00:54:33.773Z,23.20
2018-07-17T00:57:06.232Z,27.37
2018-07-17T00:59:38.612Z,20.87
2018-07-17T01:02:15.335Z,28.67
2018-07-17T01:04:52.012Z,31.43
2018-07-17T01:07:28.752Z,27.30
2018-07-17T01:10:05.463Z,34.07
2018-07-17T01:12:36.131Z,33.60
2018-07-17T01:15:19.330Z,28.27
2018-07-17T01:17:54.468Z,29.67
2018-07-17T01:20:27.071Z,29.77
2018-07-17T01:23:00.207Z,25.37
2018-07-17T01:25:44.507Z,34.97
2018-07-17T01:28:16.936Z,25.33
2018-07-17T01:30:49.302Z,30.37
2018-07-17T01:33:21.835Z,21.83
2018-07-17T01:35:52.988Z,24.70
2018-07-17T01:38:34.223Z,31.20
2018-07-17T01:41:09.463Z,24.40
2018-07-17T01:43:43.282Z,24.87
2018-07-17T01:46:16.062Z,24.87
2018-07-17T01:48:48.711Z,31.43
2018-07-17T01:51:21.105Z,23.17
2018-07-17T01:53:53.551Z,24.13
2018-07-17T01:56:26.023Z,27.17
2018-07-17T01:58:58.398Z,30.23
2018-07-17T02:01:31.186Z,29.27
2018-07-17T02:04:04.035Z,19.57
2018-07-17T02:06:36.408Z,28.40
2018-07-17T02:09:09.824Z,20.70
2018-07-17T02:11:42.226Z,25.90
2018-07-17T02:14:17.078Z,21.07
2018-07-17T02:16:50.808Z,28.47
2018-07-17T02:19:24.440Z,27.90
2018-07-17T02:21:57.037Z,35.40
2018-07-17T02:24:29.828Z,30.60
2018-07-17T02:27:02.348Z,26.20
2018-07-17T02:29:34.788Z,34.57
2018-07-17T02:32:07.220Z,24.77
2018-07-17T02:38:01.830Z,21.50
2018-07-17T02:40:39.379Z,27.23
2018-07-17T02:43:14.857Z,31.80
2018-07-17T02:45:49.445Z,22.10
2018-07-17T02:48:32.243Z,26.60
2018-07-17T02:51:08.989Z,24.30
2018-07-17T02:53:43.254Z,22.03
2018-07-17T02:56:16.267Z,27.20
2018-07-17T02:58:56.351Z,17.30
2018-07-17T03:01:28.568Z,28.10
2018-07-17T03:04:03.285Z,31.87
2018-07-17T03:06:35.790Z,25.37
2018-07-17T03:09:10.648Z,18.17
2018-07-17T03:11:45.360Z,21.50
2018-07-17T03:14:17.643Z,23.63
2018-07-17T03:20:11.879Z,28.93
2018-07-17T03:22:47.115Z,38.30
2018-07-17T03:25:26.273Z,35.17
2018-07-17T03:27:59.248Z,29.93
2018-07-17T03:33:11.172Z,24.53
2018-07-17T03:35:44.090Z,23.30
2018-07-17T03:38:16.465Z,24.10
2018-07-17T03:40:49.516Z,28.00
2018-07-17T03:43:23.261Z,24.83
2018-07-17T03:46:12.230Z,23.60
2018-07-17T03:48:45.585Z,24.00
2018-07-17T03:51:18.901Z,21.93
2018-07-17T03:53:51.522Z,24.13
2018-07-17T03:56:23.870Z,23.30
2018-07-17T03:58:56.208Z,21.97
2018-07-17T04:01:28.718Z,32.10
2018-07-17T04:04:02.175Z,28.37
2018-07-17T04:06:35.491Z,22.50
2018-07-17T04:09:11.218Z,27.97
2018-07-17T04:11:48.603Z,23.27
2018-07-17T04:14:21.062Z,24.57
2018-07-17T04:16:58.017Z,29.07
2018-07-17T04:19:31.369Z,24.53
2018-07-17T04:24:40.893Z,20.57
2018-07-17T04:27:15.844Z,17.33
2018-07-17T04:29:48.567Z,23.63
2018-07-17T04:32:21.618Z,32.33
2018-07-17T04:34:55.730Z,25.67
2018-07-17T04:37:29.056Z,25.00
2018-07-17T04:40:03.237Z,20.17
2018-07-17T04:42:35.811Z,25.60
2018-07-17T04:45:08.318Z,41.73
2018-07-17T04:47:40.548Z,29.30
2018-07-17T04:50:12.985Z,22.20
2018-07-17T04:52:46.547Z,33.13
2018-07-17T04:55:19.850Z,31.53
2018-07-17T04:57:55.145Z,33.97
2018-07-17T05:00:27.954Z,25.53
2018-07-17T05:03:00.228Z,36.97
2018-07-17T05:05:35.670Z,21.47
2018-07-17T05:08:08.566Z,36.40
2018-07-17T05:10:40.899Z,30.73
2018-07-17T05:13:13.287Z,30.90
2018-07-17T05:15:51.521Z,22.90
2018-07-17T05:18:23.938Z,26.63
2018-07-17T05:20:56.320Z,29.53
2018-07-17T05:23:28.988Z,19.80
2018-07-17T05:26:03.484Z,34.33
2018-07-17T05:28:36.167Z,20.23
2018-07-17T05:31:08.556Z,17.33
2018-07-17T05:33:42.325Z,23.80
2018-07-17T05:38:55.455Z,16.00
2018-07-17T05:44:50.010Z,14.77
2018-07-17T05:47:22.265Z,19.70
2018-07-17T05:49:54.702Z,13.70
2018-07-17T05:55:47.860Z,25.57
2018-07-17T05:58:20.417Z,18.97
2018-07-17T06:00:53.044Z,16.50
2018-07-17T06:03:25.699Z,25.73
2018-07-17T06:06:26.993Z,34.33
2018-07-17T06:08:59.341Z,34.50
2018-07-17T06:11:31.544Z,23.23
2018-07-17T06:14:05.753Z,26.13
2018-07-17T06:16:38.228Z,22.17
2018-07-17T06:19:10.829Z,18.53
2018-07-17T06:21:43.139Z,21.60
2018-07-17T06:24:15.526Z,18.57
2018-07-17T06:26:47.650Z,19.30
2018-07-17T06:29:20.151Z,20.97
2018-07-17T06:31:52.547Z,24.73
2018-07-17T06:34:24.778Z,20.00
2018-07-17T06:36:57.186Z,16.13
2018-07-17T06:39:29.669Z,14.27
2018-07-17T06:45:23.072Z,27.20
2018-07-17T06:47:55.794Z,17.23
2018-07-17T06:50:28.217Z,16.83
2018-07-17T06:53:00.457Z,18.60
2018-07-17T06:55:32.959Z,24.40
2018-07-17T06:58:05.408Z,20.27
2018-07-17T07:00:37.642Z,25.17
2018-07-17T07:03:10.040Z,23.83
2018-07-17T07:06:07.588Z,23.97
2018-07-17T07:08:39.778Z,21.60
2018-07-17T07:11:12.148Z,15.00
2018-07-17T07:13:44.406Z,18.70
2018-07-17T07:16:17.471Z,25.33
2018-07-17T07:18:49.683Z,17.23
2018-07-17T07:21:22.048Z,19.87
2018-07-17T07:23:54.484Z,18.80
2018-07-17T07:29:55.308Z,21.00
2018-07-17T07:32:27.680Z,19.90
2018-07-17T07:34:59.997Z,20.90
2018-07-17T07:40:53.825Z,20.50
2018-07-17T07:43:26.093Z,17.87
2018-07-17T07:45:58.365Z,18.90
2018-07-17T07:48:30.617Z,16.43
2018-07-17T07:51:02.969Z,16.30
2018-07-17T07:53:35.237Z,19.77
2018-07-17T07:56:07.512Z,14.77
2018-07-17T07:58:39.890Z,17.03
2018-07-17T08:01:12.159Z,18.77
2018-07-17T08:03:44.479Z,13.87
2018-07-17T08:09:38.708Z,15.30
2018-07-17T08:12:12.325Z,15.70
2018-07-17T08:14:45.054Z,18.10
2018-07-17T08:17:17.859Z,16.60
2018-07-17T08:19:50.728Z,17.07
2018-07-17T08:22:23.421Z,11.80
2018-07-17T08:24:56.007Z,23.87
2018-07-17T08:27:27.377Z,15.90
2018-07-17T08:30:00.117Z,19.63
2018-07-17T08:32:32.896Z,14.83
2018-07-17T08:35:05.844Z,20.20
2018-07-17T08:37:38.737Z,19.57
2018-07-17T08:40:11.313Z,22.50
2018-07-17T08:42:44.124Z,17.53
2018-07-17T08:45:17.955Z,16.90
2018-07-17T08:51:11.376Z,13.87
2018-07-17T08:53:43.886Z,13.67
2018-07-17T08:56:16.338Z,15.80
2018-07-17T08:58:48.813Z,21.40
2018-07-17T09:01:21.280Z,13.97
2018-07-17T09:03:53.757Z,10.00
2018-07-17T09:06:26.285Z,17.23
2018-07-17T09:08:59.838Z,16.10
2018-07-17T09:11:31.028Z,15.30
2018-07-17T09:14:03.494Z,12.30
2018-07-17T09:16:35.985Z,21.53
2018-07-17T09:22:30.092Z,16.47
2018-07-17T09:25:03.818Z,18.07
2018-07-17T09:27:36.618Z,17.97
2018-07-17T09:30:10.140Z,14.87
2018-07-17T09:32:43.422Z,23.77
2018-07-17T09:35:16.211Z,17.40
2018-07-17T09:37:49.219Z,22.23
2018-07-17T09:40:22.152Z,22.03
2018-07-17T09:46:15.511Z,18.50
2018-07-17T09:48:47.804Z,18.63
2018-07-17T09:51:20.026Z,22.37
2018-07-17T09:53:52.304Z,17.97
2018-07-17T09:56:24.719Z,21.93
2018-07-17T09:58:57.156Z,15.67
2018-07-17T10:01:33.813Z,21.60
2018-07-17T10:04:06.033Z,18.23
2018-07-17T10:06:38.459Z,21.70
2018-07-17T10:09:10.949Z,23.27
2018-07-17T10:11:43.243Z,20.27
2018-07-17T10:14:15.694Z,22.30
2018-07-17T10:16:47.955Z,17.93
2018-07-17T10:19:20.160Z,18.67
2018-07-17T10:25:13.759Z,18.17
2018-07-17T10:27:46.402Z,18.97
2018-07-17T10:30:18.964Z,24.20
2018-07-17T10:32:51.664Z,18.00
2018-07-17T10:35:24.170Z,19.37
2018-07-17T10:37:56.718Z,27.53
2018-07-17T10:40:29.424Z,22.63
2018-07-17T10:43:01.974Z,20.87
2018-07-17T10:45:34.696Z,17.63
2018-07-17T10:48:07.304Z,26.27
2018-07-17T10:50:40.007Z,19.90
2018-07-17T10:53:12.559Z,20.93
2018-07-17T10:55:45.137Z,14.97
2018-07-17T11:01:38.400Z,20.00
2018-07-17T11:04:10.980Z,16.13
2018-07-17T11:06:43.500Z,14.47
2018-07-17T11:09:16.117Z,19.30
2018-07-17T11:11:48.675Z,16.30
2018-07-17T11:14:21.520Z,20.67
2018-07-17T11:16:54.104Z,18.83
2018-07-17T11:19:26.584Z,18.27
2018-07-17T11:21:59.541Z,20.33
2018-07-17T11:24:32.032Z,16.00
2018-07-17T11:27:04.659Z,17.60
2018-07-17T11:29:37.185Z,18.50
2018-07-17T11:32:09.950Z,17.70
2018-07-17T11:34:42.475Z,16.60
2018-07-17T11:37:14.921Z,21.83
2018-07-17T11:39:47.368Z,15.43
2018-07-17T11:42:20.259Z,19.27
2018-07-17T11:44:53.395Z,16.47
2018-07-17T11:47:26.117Z,22.57
2018-07-17T11:49:58.770Z,16.17
2018-07-17T11:52:31.478Z,14.17
2018-07-17T11:55:04.130Z,14.37
2018-07-17T11:57:37.259Z,17.03
2018-07-17T12:00:10.847Z,17.53
2018-07-17T12:02:45.268Z,16.83
2018-07-17T12:05:19.447Z,12.70
2018-07-17T12:07:52.249Z,16.20
2018-07-17T12:10:25.128Z,21.07
2018-07-17T12:13:00.672Z,15.57
2018-07-17T12:15:33.288Z,17.97
2018-07-17T12:18:06.050Z,18.83
2018-07-17T12:20:38.950Z,20.43
2018-07-17T12:23:13.209Z,16.83
2018-07-17T12:25:45.905Z,15.13
2018-07-17T12:28:18.477Z,12.97
2018-07-17T12:30:51.672Z,14.43
2018-07-17T12:33:24.279Z,18.13
2018-07-17T12:35:57.004Z,19.93
2018-07-17T12:38:28.547Z,13.50
2018-07-17T12:41:01.178Z,14.27
2018-07-17T12:43:33.953Z,16.70
2018-07-17T12:46:08.530Z,17.30
2018-07-17T12:48:41.668Z,12.53
2018-07-17T12:51:14.651Z,17.33
2018-07-17T12:53:47.596Z,18.37
2018-07-17T12:56:20.932Z,11.27
2018-07-17T12:58:55.470Z,8.40
2018-07-17T13:01:28.386Z,17.30
2018-07-17T13:04:01.551Z,13.20
2018-07-17T13:06:34.227Z,17.27
2018-07-17T13:09:14.883Z,15.03
2018-07-17T13:11:54.399Z,12.07
2018-07-17T13:14:44.926Z,20.23
2018-07-17T13:17:34.648Z,23.23
2018-07-17T13:23:04.254Z,24.93
2018-07-17T13:25:37.960Z,14.33
2018-07-17T13:28:10.755Z,17.90
2018-07-17T13:30:43.619Z,17.10
2018-07-17T13:33:20.131Z,8.47
2018-07-17T13:35:52.883Z,14.10
2018-07-17T13:38:26.964Z,22.53
2018-07-17T13:40:59.466Z,20.77
2018-07-17T13:43:32.307Z,13.13
2018-07-17T13:46:06.041Z,17.07
2018-07-17T13:48:38.654Z,9.80
2018-07-17T13:51:13.097Z,13.97
2018-07-17T13:54:14.501Z,13.97
2018-07-17T13:56:47.198Z,21.13
2018-07-17T13:59:19.506Z,16.53
2018-07-17T14:01:52.032Z,18.90
2018-07-17T14:04:24.596Z,20.13
2018-07-17T14:06:57.185Z,20.43
2018-07-17T14:09:29.812Z,16.20
2018-07-17T14:15:23.181Z,14.40
2018-07-17T14:17:55.762Z,9.57
2018-07-17T14:20:28.936Z,12.30
2018-07-17T14:23:01.379Z,12.23
2018-07-17T14:25:34.161Z,10.63
2018-07-17T14:28:05.532Z,12.23
2018-07-17T14:30:38.040Z,11.60
2018-07-17T14:33:11.016Z,10.33
2018-07-17T14:35:43.459Z,14.97
2018-07-17T14:38:17.843Z,16.67
2018-07-17T14:40:50.347Z,9.17
2018-07-17T14:43:22.971Z,18.63
2018-07-17T14:45:55.639Z,10.73
2018-07-17T14:48:28.189Z,9.77
2018-07-17T14:51:01.937Z,19.77
2018-07-17T14:53:38.108Z,20.33
2018-07-17T14:56:11.016Z,20.83
2018-07-17T14:58:49.308Z,23.77
2018-07-17T15:01:21.930Z,20.07
2018-07-17T15:03:54.446Z,15.33
2018-07-17T15:06:26.872Z,13.60
2018-07-17T15:08:59.580Z,13.57
2018-07-17T15:14:19.773Z,17.17
2018-07-17T15:16:53.317Z,11.10
2018-07-17T15:19:29.968Z,15.57
2018-07-17T15:22:05.085Z,23.80
2018-07-17T15:24:38.544Z,20.50
2018-07-17T15:27:12.621Z,21.10
2018-07-17T15:29:45.738Z,25.53
2018-07-17T15:32:18.526Z,29.93
2018-07-17T15:37:49.398Z,13.32
2018-07-17T15:40:22.594Z,14.07
2018-07-17T15:43:06.405Z,11.23
2018-07-17T15:45:42.606Z,12.03
2018-07-17T15:48:18.503Z,13.65
2018-07-17T15:50:52.482Z,10.90
2018-07-17T15:53:28.192Z,8.78
2018-07-17T15:56:29.875Z,17.30
2018-07-17T15:59:07.925Z,9.13
2018-07-17T16:01:45.363Z,10.72
2018-07-17T16:04:22.868Z,15.88
2018-07-17T16:06:55.872Z,15.13
2018-07-17T16:09:28.442Z,10.37
2018-07-17T16:12:01.843Z,17.63
2018-07-17T16:14:34.873Z,11.30
2018-07-17T16:17:07.290Z,13.53
2018-07-17T16:23:01.867Z,19.60
2018-07-17T16:25:34.495Z,18.40
2018-07-17T16:28:06.782Z,17.02
2018-07-17T16:30:40.198Z,16.62
2018-07-17T16:33:12.951Z,15.98
2018-07-17T16:39:08.481Z,16.65
2018-07-17T16:45:01.663Z,15.93
2018-07-17T16:47:34.524Z,18.80
2018-07-17T16:50:07.876Z,12.30
2018-07-17T16:52:41.372Z,22.25
2018-07-17T16:55:20.489Z,17.52
2018-07-17T17:01:25.493Z,16.10
2018-07-17T17:03:59.068Z,18.92
2018-07-17T17:06:32.445Z,16.70
2018-07-17T17:09:04.960Z,17.45
2018-07-17T17:11:45.472Z,18.77
2018-07-17T17:14:18.029Z,15.23
2018-07-17T17:16:50.603Z,11.25
2018-07-17T17:19:23.177Z,12.75
2018-07-17T17:25:16.649Z,7.08
2018-07-17T17:27:49.953Z,16.32
2018-07-17T17:30:23.656Z,17.37
2018-07-17T17:32:58.759Z,15.35
2018-07-17T17:35:31.456Z,15.95
2018-07-17T17:38:04.431Z,8.53
2018-07-17T17:40:37.035Z,12.13
2018-07-17T17:43:09.942Z,12.20
2018-07-17T17:45:44.225Z,9.23
2018-07-17T17:48:16.881Z,13.98
2018-07-17T17:50:49.557Z,11.55
2018-07-17T17:53:22.556Z,12.03
2018-07-17T17:56:01.955Z,10.72
2018-07-17T17:58:39.264Z,14.38
2018-07-17T18:01:11.581Z,15.35
2018-07-17T18:03:44.614Z,16.40
2018-07-17T18:06:18.582Z,13.58
2018-07-17T18:08:51.259Z,14.80
2018-07-17T18:11:23.819Z,12.33
2018-07-17T18:13:56.644Z,15.95
2018-07-17T18:16:29.153Z,13.08
2018-07-17T18:19:03.149Z,8.18
2018-07-17T18:21:36.470Z,15.50
2018-07-17T18:24:39.581Z,19.77
2018-07-17T18:27:24.963Z,15.58
2018-07-17T18:30:08.230Z,8.93
2018-07-17T18:32:55.939Z,17.60
2018-07-17T18:38:53.276Z,14.03
2018-07-17T18:41:25.903Z,21.15
2018-07-17T18:43:59.557Z,9.78
2018-07-17T18:46:33.139Z,16.37
2018-07-17T18:49:05.740Z,12.47
2018-07-17T18:51:38.347Z,17.87
2018-07-17T18:54:11.034Z,9.75
2018-07-17T18:57:08.721Z,23.60
2018-07-17T19:00:01.181Z,14.80
2018-07-17T19:02:49.218Z,15.90
2018-07-17T19:05:48.253Z,13.15
2018-07-17T19:08:29.991Z,22.58
2018-07-17T19:11:10.082Z,18.57
2018-07-17T19:13:43.646Z,19.23
2018-07-17T19:16:20.860Z,18.42
2018-07-17T19:18:55.282Z,9.68
2018-07-17T19:21:28.275Z,9.15
2018-07-17T19:24:00.969Z,12.13
2018-07-17T19:27:21.269Z,9.68
2018-07-17T19:29:53.768Z,12.68
2018-07-17T19:32:30.261Z,10.05
2018-07-17T19:35:02.740Z,9.23
2018-07-17T19:37:35.093Z,16.45
2018-07-17T19:40:07.869Z,11.78
2018-07-17T19:42:40.801Z,6.03
2018-07-17T19:45:17.376Z,11.40
2018-07-17T19:51:17.908Z,12.55
2018-07-17T19:53:51.297Z,9.00
2018-07-17T19:56:31.979Z,13.40
2018-07-17T19:59:07.511Z,12.33
2018-07-17T20:01:48.525Z,11.20
2018-07-17T20:04:21.815Z,8.48
2018-07-17T20:06:54.219Z,11.45
2018-07-17T20:09:26.669Z,9.23
2018-07-17T20:12:00.853Z,12.25
2018-07-17T20:14:33.383Z,10.45
2018-07-17T20:17:07.789Z,11.38
2018-07-17T20:19:40.391Z,11.80
2018-07-17T20:22:12.848Z,9.58
2018-07-17T20:24:45.258Z,7.67
2018-07-17T20:27:18.059Z,12.35
2018-07-17T20:29:50.582Z,10.32
2018-07-17T20:32:22.887Z,17.55
2018-07-17T20:34:55.936Z,19.30
2018-07-17T20:37:42.319Z,10.90
2018-07-17T20:40:15.063Z,19.87
2018-07-17T20:42:47.439Z,10.18
2018-07-17T20:45:19.766Z,18.25
2018-07-17T20:47:52.158Z,11.80
2018-07-17T20:50:24.577Z,11.83
2018-07-17T20:52:56.986Z,10.65
2018-07-17T20:55:30.543Z,12.88
2018-07-17T20:58:02.892Z,16.73
2018-07-17T21:00:39.225Z,8.05
2018-07-17T21:03:11.781Z,12.20
2018-07-17T21:05:44.585Z,9.93
2018-07-17T21:08:17.046Z,14.30
2018-07-17T21:11:05.001Z,12.37
2018-07-17T21:13:55.338Z,12.90
2018-07-17T21:16:27.755Z,11.83
2018-07-17T21:19:18.597Z,11.15
2018-07-17T21:21:54.106Z,14.75
2018-07-17T21:24:26.932Z,10.82
2018-07-17T21:27:04.607Z,7.65
2018-07-17T21:29:45.851Z,10.93
2018-07-17T21:35:48.795Z,14.23
2018-07-17T21:38:21.093Z,10.60
2018-07-17T21:40:54.161Z,13.47
2018-07-17T21:43:26.477Z,14.55
2018-07-17T21:46:00.085Z,11.65
2018-07-17T21:48:34.277Z,9.48
2018-07-17T21:54:30.593Z,12.03
2018-07-17T21:57:03.079Z,12.43
2018-07-17T21:59:35.496Z,9.63
2018-07-17T22:05:29.355Z,14.43
2018-07-17T22:08:02.437Z,12.60
2018-07-17T22:10:35.369Z,14.28
2018-07-17T22:13:08.218Z,9.38
2018-07-17T22:15:41.884Z,23.30
2018-07-17T22:18:14.723Z,13.03
2018-07-17T22:20:48.541Z,20.80
2018-07-17T22:23:22.922Z,12.37
2018-07-17T22:25:57.139Z,8.67
2018-07-17T22:28:34.575Z,8.17
2018-07-17T22:31:15.569Z,16.55
2018-07-17T22:33:49.742Z,19.25
2018-07-17T22:36:24.594Z,10.20
2018-07-17T22:38:59.609Z,14.15
2018-07-17T22:41:34.522Z,6.80
2018-07-17T22:44:08.879Z,149.77
2018-07-17T22:46:44.119Z,125.60
2018-07-17T22:49:25.766Z,376.27
2018-07-17T22:52:00.375Z,32.90
2018-07-17T22:54:34.682Z,13.53
2018-07-17T22:57:09.378Z,196.20
2018-07-17T22:59:45.660Z,554.33
2018-07-17T23:02:19.653Z,330.60
2018-07-17T23:04:53.766Z,381.93
2018-07-17T23:07:29.026Z,267.97
2018-07-17T23:10:02.976Z,166.27
2018-07-17T23:12:37.248Z,328.37
2018-07-17T23:15:11.316Z,66.63
2018-07-17T23:17:44.987Z,57.63
2018-07-17T23:20:18.016Z,19.40
2018-07-17T23:23:00.223Z,128.97
2018-07-17T23:25:34.529Z,170.80
2018-07-17T23:30:55.706Z,92.27
2018-07-17T23:33:29.705Z,52.30
2018-07-17T23:36:06.528Z,31.53
2018-07-17T23:38:40.890Z,50.63
2018-07-17T23:41:22.329Z,24.27
2018-07-17T23:43:55.481Z,79.57
2018-07-17T23:46:28.790Z,113.33
2018-07-17T23:49:05.834Z,93.83
2018-07-17T23:52:23.712Z,66.90
2018-07-17T23:54:56.498Z,31.93
2018-07-17T23:57:30.637Z,126.33
